Luna, Louisiana
Current Conditions -  °F | °C
As of 4:53 PM on Tuesday 25 Nov 2014 (Local Time) from KMLU Reporting Station
Clear Clear  
Wind Chill: 51°   Ceiling: Unl
Heat Index: 51°   Visibility: 10mi
Dew Point: 31°   Wind: 0mph
Humidity: 46%   Direction: NA
Pressure: 30.21"   Gusts: NA
Location:  32.3932°N, 92.2204°W
Report Text: KMLU 252253Z 00000KT 10SM CLR 11/M01 A3021 RMK AO2 SLP229 T01061006
Loading
Personal Weather Stations






























Interactive Weather Map New forecast layout! Learn more

10-Day Weather Forecast

Advertisements
Track Severe Weather on mobile